Nearby METAR Reports

 

KSQL - San Carlos Airpo, California, USA
Distance from station: N 0mi, 1km
Updated: Sat, 21-Apr-2018 12:20am PDT
Clear
Clear
 Wind from SW
Wind: SW 5 mph , 7 km/h
Temperature: 54°F , 12°C
Dew Point: 45°F , 7°C
Humidity: 72%
Barometer: 30.18 inHg , 1022 hPa
Clouds: Clear
Visibility: 10 miles , 16 km
2018/04/21 07:20 KSQL 210720Z AUTO 23004KT 10SM CLR 12/07 A3018 RMK AO2
KPAO - Palo Alto, California, USA
Distance from station: ESE 8mi, 13km
Updated: Fri, 20-Apr-2018 8:47pm PDT
NOT Current
Clear
Clear
 Wind from NW
Wind: NW 6 mph , 9 km/h
Barometer: 30.16 inHg , 1021.3 hPa
Clouds: Clear
Visibility: 10 miles , 16 km
2018/04/21 03:47 KPAO 210347Z 32005KT 10SM SKC A3016 RMK LAST
 
KSFO - San Francisco, California, USA
Distance from station: NW 10mi, 16km
Updated: Fri, 20-Apr-2018 11:56pm PDT
Clear
Clear
 Wind from W
Wind: W 10 mph , 17 km/h
Temperature: 54°F , 12°C
Dew Point: 45°F , 7°C
Humidity: 72%
Barometer: 30.18 inHg , 1022 hPa
Clouds: Clear
Visibility: 10 miles , 16 km
2018/04/21 06:56 KSFO 210656Z 26009KT 10SM CLR 12/07 A3018 RMK AO2 SLP218 T01220067
KHWD - Hayward, California, USA
Distance from station: NE 13mi, 21km
Updated: Fri, 20-Apr-2018 11:54pm PDT
Clear
Clear
 Wind from W
Wind: W 7 mph , 11 km/h
Temperature: 54°F , 12°C
Dew Point: 45°F , 7°C
Humidity: 72%
Barometer: 30.18 inHg , 1022 hPa
Clouds: Clear
Visibility: 10 miles , 16 km
2018/04/21 06:54 KHWD 210654Z 26006KT 10SM CLR 12/07 A3018 RMK AO2 SLP230 T01220067
 
KNUQ - Moffett Nas/Mtn, California, USA
Distance from station: SE 13mi, 22km
Updated: Fri, 20-Apr-2018 11:56pm PDT
Clear
Clear
 Wind from ENE
Wind: ENE 3 mph , 6 km/h
Temperature: 54°F , 12°C
Dew Point: 48°F , 9°C
Humidity: 82%
Barometer: 30.19 inHg , 1022.4 hPa
Clouds: Clear
Visibility: 10 miles , 16 km
2018/04/21 06:56 KNUQ 210656Z 06003KT 10SM CLR 12/09 A3019 RMK AO2 SLP226 T01170089
KHAF - Half Moon Bay, California, USA
Distance from station: W 14mi, 22km
Updated: Sat, 21-Apr-2018 12:20am PDT
Mist, Overcast
Mist, Overcast
 Wind from calm
Wind: Calm
Temperature: 45°F , 7°C
Dew Point: 41°F , 5°C
Humidity: 87%
Barometer: 30.20 inHg , 1022.7 hPa
Summary: Mist
Clouds: Overcast
Visibility: 6 miles , 10 km
Cloud details: Overcast 1600 ft
2018/04/21 07:20 KHAF 210720Z AUTO 00000KT 6SM BR OVC016 07/05 A3020 RMK AO2
 
KOAK - Oakland, California, USA
Distance from station: N 14mi, 23km
Updated: Fri, 20-Apr-2018 11:53pm PDT
Clear
Clear
 Wind from NE
Wind: NE 6 mph , 9 km/h
Temperature: 50°F , 10°C
Wind Chill: 48°F , 9°C
Dew Point: 46°F , 8°C
Humidity: 88%
Barometer: 30.18 inHg , 1022 hPa
Clouds: Clear
Visibility: 10 miles , 16 km
2018/04/21 06:53 KOAK 210653Z 04005KT 10SM CLR 10/08 A3018 RMK AO2 SLP218 T01000083
KSJC - San Jose, California, USA
Distance from station: ESE 21mi, 34km
Updated: Fri, 20-Apr-2018 11:53pm PDT
Clear
Clear
 Wind from WNW
Wind: WNW 8 mph , 13 km/h
Temperature: 54°F , 12°C
Dew Point: 48°F , 9°C
Humidity: 82%
Barometer: 30.19 inHg , 1022.4 hPa
Clouds: Clear
Visibility: 10 miles , 16 km
2018/04/21 06:53 KSJC 210653Z 30007KT 10SM CLR 12/09 A3019 RMK AO2 SLP221 LAST T01170089
 
KLVK - Livermore, California, USA
Distance from station: ENE 27mi, 43km
Updated: Fri, 20-Apr-2018 11:53pm PDT
Clear
Clear
 Wind from NNW
Wind: NNW 3 mph , 6 km/h
Temperature: 52°F , 11°C
Dew Point: 48°F , 9°C
Humidity: 88%
Barometer: 30.17 inHg , 1021.7 hPa
Clouds: Clear
Visibility: 10 miles , 16 km
2018/04/21 06:53 KLVK 210653Z AUTO 33003KT 10SM CLR 11/09 A3017 RMK AO2 SLP214 T01060089
KRHV - San Jose/Reid, California, USA
Distance from station: ESE 27mi, 44km
Updated: Fri, 20-Apr-2018 9:47pm PDT
NOT Current
Clear
Clear
 Wind from calm
Wind: Calm
Temperature: 57°F , 14°C
Dew Point: 50°F , 10°C
Humidity: 77%
Barometer: 30.17 inHg , 1021.7 hPa
Clouds: Clear
Visibility: 10 miles , 16 km
2018/04/21 04:47 KRHV 210447Z 00000KT 10SM SKC 14/10 A3017
 
KCCR - Concord, California, USA
Distance from station: NNE 35mi, 57km
Updated: Fri, 20-Apr-2018 11:53pm PDT
Clear
Clear
 Wind from S
Wind: S 14 mph , 22 km/h
Temperature: 57°F , 14°C
Dew Point: 46°F , 8°C
Humidity: 67%
Barometer: 30.15 inHg , 1021 hPa
Clouds: Clear
Visibility: 10 miles , 16 km
2018/04/21 06:53 KCCR 210653Z AUTO 19012KT 10SM CLR 14/08 A3015 RMK AO2 SLP195 T01390083
KE16 - San Martin, California, USA
Distance from station: SE 46mi, 75km
Updated: Sat, 21-Apr-2018 12:15am PDT
Mostly cloudy
Mostly cloudy
 Wind from calm
Wind: Calm
Temperature: 50°F , 10°C
Dew Point: 46°F , 8°C
Humidity: 88%
Barometer: 30.21 inHg , 1023 hPa
Clouds: Mostly cloudy
Visibility: 10 miles , 16 km
Cloud details: Mostly cloudy 1400 ft
2018/04/21 07:15 KE16 210715Z AUTO 00000KT 10SM BKN014 10/08 A3021 RMK AO2
 
KDVO - Novato/Gnoss Fld, California, USA
Distance from station: NNW 47mi, 76km
Updated: Sat, 21-Apr-2018 12:15am PDT
Clear
Clear
 Wind from NNW
Wind: NNW 3 mph , 6 km/h
Temperature: 50°F , 10°C
Dew Point: 48°F , 9°C
Humidity: 94%
Barometer: 30.16 inHg , 1021.3 hPa
Clouds: Clear
Visibility: 10 miles , 16 km
2018/04/21 07:15 KDVO 210715Z AUTO 33003KT 10SM CLR 10/09 A3016 RMK AO2
KWVI - Watsonville, California, USA
Distance from station: SSE 47mi, 76km
Updated: Sat, 21-Apr-2018 12:10am PDT
Mostly cloudy
Mostly cloudy
 Wind from N
Wind: N 3 mph , 6 km/h
Temperature: 48°F , 9°C
Dew Point: 46°F , 8°C
Humidity: 94%
Barometer: 30.20 inHg , 1022.7 hPa
Clouds: Mostly cloudy
Visibility: 7 miles , 11 km
Cloud details: Mostly cloudy 800 ft
2018/04/21 07:10 KWVI 210710Z AUTO 35003KT 7SM BKN008 09/08 A3020 RMK AO2 T00940083 TSNO
 
KAPC - Napa, California, USA
Distance from station: N 48mi, 77km
Updated: Fri, 20-Apr-2018 11:54pm PDT
Clear
Clear
 Wind from WSW
Wind: WSW 5 mph , 7 km/h
Temperature: 52°F , 11°C
Dew Point: 46°F , 8°C
Humidity: 82%
Barometer: 30.16 inHg , 1021.3 hPa
Clouds: Clear
Visibility: 10 miles , 16 km
2018/04/21 06:54 KAPC 210654Z 25004KT 10SM CLR 11/08 A3016 RMK AO2 SLP203 T01060083
KO69 - Petaluma, California, USA
Distance from station: NNW 54mi, 88km
Updated: Sat, 21-Apr-2018 12:15am PDT
Few Clouds
Few Clouds
 Wind from N
Wind: N 3 mph , 6 km/h
Temperature: 46°F , 8°C
Dew Point: 46°F , 8°C
Humidity: 100%
Barometer: 30.16 inHg , 1021.3 hPa
Clouds: Few Clouds
Visibility: 10 miles , 16 km
Cloud details: Few Clouds 1900 ft
Few Clouds 3300 ft
Few Clouds 7500 ft
2018/04/21 07:15 KO69 210715Z AUTO 01003KT 10SM FEW019 FEW033 FEW075 08/08 A3016 RMK A01
 
KSUU - Travis Afb/Fairf, California, USA
Distance from station: NNE 55mi, 89km
Updated: Fri, 20-Apr-2018 11:58pm PDT
Clear
Clear
 Wind from WSW
Wind: WSW 21 mph , 33 km/h, Gust: 29 mph , 46 km/h
Temperature: 55°F , 13°C
Dew Point: 50°F , 10°C
Humidity: 82%
Barometer: 30.09 inHg , 1019 hPa
Clouds: Clear
Visibility: 10 miles , 16 km
2018/04/21 06:58 KSUU 210658Z AUTO 24018G25KT 10SM CLR 13/10 A3009 RMK AO2 SLP196 T01270095 $
KCVH - Hollister Muni, California, USA
Distance from station: SE 62mi, 100km
Updated: Sat, 21-Apr-2018 12:15am PDT
Clear
Clear
 Wind from calm
Wind: Calm
Temperature: 48°F , 9°C
Dew Point: 46°F , 8°C
Humidity: 94%
Barometer: 30.19 inHg , 1022.4 hPa
Clouds: Clear
Visibility: 10 miles , 16 km
2018/04/21 07:15 KCVH 210715Z AUTO 00000KT 10SM CLR 09/08 A3019 RMK A01
 
KSCK - Stockton, California, USA
Distance from station: ENE 62mi, 100km
Updated: Fri, 20-Apr-2018 11:55pm PDT
Clear
Clear
 Wind from calm
Wind: Calm
Temperature: 55°F , 13°C
Dew Point: 45°F , 7°C
Humidity: 67%
Barometer: 30.12 inHg , 1020 hPa
Clouds: Clear
Visibility: 10 miles , 16 km
2018/04/21 06:55 KSCK 210655Z AUTO 00000KT 10SM CLR 13/07 A3012 RMK AO2 SLP197 T01330067
KVCB - Vacaville, California, USA
Distance from station: NNE 62mi, 100km
Updated: Fri, 20-Apr-2018 11:53pm PDT
Clear
Clear
 Wind from WSW
Wind: WSW 8 mph , 13 km/h
Temperature: 57°F , 14°C
Dew Point: 48°F , 9°C
Humidity: 72%
Barometer: 30.12 inHg , 1020 hPa
Clouds: Clear
Visibility: 10 miles , 16 km
2018/04/21 06:53 KVCB 210653Z AUTO 24007KT 10SM CLR 14/09 A3012 RMK AO2 SLP198 T01440094